TAF KMLB
KMLB 091122Z 0912/1012 27004KT P6SM BKN010 TEMPO 0912/0913 5SM BR BKN006 FM091400 09004KT P6SM SCT020 SCT250 TEMPO 0914/0915 BKN015 FM091700 09007KT P6SM SCT030 SCT250 FM100100 04004KT P6SM FEW035 TEMPO 1009/1012 4SM BR SCT002=
METAR KMLB
WC KMLB
WS KMLB
WV KMLB